sensor_id;sensor_type;location;lat;lon;timestamp;temperature;humidity
41058;DHT22;66768;48.884;2.258;2023-04-07T00:00:23;11.70;99.90
41058;DHT22;66768;48.884;2.258;2023-04-07T00:02:51;11.70;99.90
41058;DHT22;66768;48.884;2.258;2023-04-07T00:05:18;11.70;99.90
41058;DHT22;66768;48.884;2.258;2023-04-07T00:07:45;11.70;99.90
41058;DHT22;66768;48.884;2.258;2023-04-07T00:10:12;11.70;99.90
41058;DHT22;66768;48.884;2.258;2023-04-07T00:12:40;11.60;99.90
41058;DHT22;66768;48.884;2.258;2023-04-07T00:15:08;11.60;99.90
41058;DHT22;66768;48.884;2.258;2023-04-07T00:17:35;11.70;99.90
41058;DHT22;66768;48.884;2.258;2023-04-07T00:20:01;11.60;99.90
41058;DHT22;66768;48.884;2.258;2023-04-07T00:22:28;11.60;99.90
41058;DHT22;66768;48.884;2.258;2023-04-07T00:24:55;11.50;99.90
41058;DHT22;66768;48.884;2.258;2023-04-07T00:27:22;11.50;99.90
41058;DHT22;66768;48.884;2.258;2023-04-07T00:29:50;11.60;99.90
41058;DHT22;66768;48.884;2.258;2023-04-07T00:32:19;11.60;99.90
41058;DHT22;66768;48.884;2.258;2023-04-07T00:34:46;11.50;99.90
41058;DHT22;66768;48.884;2.258;2023-04-07T00:37:13;11.50;99.90
41058;DHT22;66768;48.884;2.258;2023-04-07T00:39:40;11.40;99.90
41058;DHT22;66768;48.884;2.258;2023-04-07T00:42:07;11.40;99.90
41058;DHT22;66768;48.884;2.258;2023-04-07T00:44:34;11.40;99.90
41058;DHT22;66768;48.884;2.258;2023-04-07T00:47:02;11.30;99.90
41058;DHT22;66768;48.884;2.258;2023-04-07T00:49:29;11.30;99.90
41058;DHT22;66768;48.884;2.258;2023-04-07T00:51:57;11.40;99.90
41058;DHT22;66768;48.884;2.258;2023-04-07T00:54:25;11.40;99.90
41058;DHT22;66768;48.884;2.258;2023-04-07T00:56:52;11.40;99.90
41058;DHT22;66768;48.884;2.258;2023-04-07T00:59:19;11.50;99.90
41058;DHT22;66768;48.884;2.258;2023-04-07T01:01:52;11.40;99.90
41058;DHT22;66768;48.884;2.258;2023-04-07T01:04:26;11.50;99.90
41058;DHT22;66768;48.884;2.258;2023-04-07T01:07:03;11.50;99.90
41058;DHT22;66768;48.884;2.258;2023-04-07T01:09:36;11.50;99.90
41058;DHT22;66768;48.884;2.258;2023-04-07T01:12:09;11.50;99.90
41058;DHT22;66768;48.884;2.258;2023-04-07T01:14:41;11.50;99.90
41058;DHT22;66768;48.884;2.258;2023-04-07T01:17:12;11.40;99.90
41058;DHT22;66768;48.884;2.258;2023-04-07T01:19:47;11.40;99.90
41058;DHT22;66768;48.884;2.258;2023-04-07T01:22:19;11.40;99.90
41058;DHT22;66768;48.884;2.258;2023-04-07T01:25:12;11.40;99.90
41058;DHT22;66768;48.884;2.258;2023-04-07T01:27:53;11.40;99.90
41058;DHT22;66768;48.884;2.258;2023-04-07T01:30:26;11.40;99.90
41058;DHT22;66768;48.884;2.258;2023-04-07T01:32:55;11.40;99.90
41058;DHT22;66768;48.884;2.258;2023-04-07T01:35:24;11.40;99.90
41058;DHT22;66768;48.884;2.258;2023-04-07T01:37:53;11.50;99.90
41058;DHT22;66768;48.884;2.258;2023-04-07T01:40:21;11.50;99.90
41058;DHT22;66768;48.884;2.258;2023-04-07T01:42:49;11.40;99.90
41058;DHT22;66768;48.884;2.258;2023-04-07T01:45:17;11.40;99.90
41058;DHT22;66768;48.884;2.258;2023-04-07T01:47:46;11.40;99.90
41058;DHT22;66768;48.884;2.258;2023-04-07T01:50:14;11.30;99.90
41058;DHT22;66768;48.884;2.258;2023-04-07T01:52:42;11.30;99.90
41058;DHT22;66768;48.884;2.258;2023-04-07T01:55:10;11.30;99.90
41058;DHT22;66768;48.884;2.258;2023-04-07T01:57:37;11.30;99.90
41058;DHT22;66768;48.884;2.258;2023-04-07T02:00:05;11.20;99.90
41058;DHT22;66768;48.884;2.258;2023-04-07T02:02:36;11.30;99.90
41058;DHT22;66768;48.884;2.258;2023-04-07T02:05:12;11.30;99.90
41058;DHT22;66768;48.884;2.258;2023-04-07T02:07:45;11.30;99.90
41058;DHT22;66768;48.884;2.258;2023-04-07T02:10:15;11.30;99.90
41058;DHT22;66768;48.884;2.258;2023-04-07T02:12:44;11.30;99.90
41058;DHT22;66768;48.884;2.258;2023-04-07T02:15:12;11.20;99.90
41058;DHT22;66768;48.884;2.258;2023-04-07T02:17:46;11.20;99.90
41058;DHT22;66768;48.884;2.258;2023-04-07T02:20:17;11.10;99.90
41058;DHT22;66768;48.884;2.258;2023-04-07T02:22:43;11.10;99.90
41058;DHT22;66768;48.884;2.258;2023-04-07T02:25:23;11.10;99.90
41058;DHT22;66768;48.884;2.258;2023-04-07T02:27:50;11.10;99.90
41058;DHT22;66768;48.884;2.258;2023-04-07T02:30:17;11.10;99.90
41058;DHT22;66768;48.884;2.258;2023-04-07T02:32:44;11.00;99.90
41058;DHT22;66768;48.884;2.258;2023-04-07T02:35:11;11.10;99.90
41058;DHT22;66768;48.884;2.258;2023-04-07T02:37:39;11.10;99.90
41058;DHT22;66768;48.884;2.258;2023-04-07T02:40:07;11.10;99.90
41058;DHT22;66768;48.884;2.258;2023-04-07T02:42:34;11.10;99.90
41058;DHT22;66768;48.884;2.258;2023-04-07T02:45:02;11.10;99.90
41058;DHT22;66768;48.884;2.258;2023-04-07T02:47:29;11.10;99.90
41058;DHT22;66768;48.884;2.258;2023-04-07T02:49:56;11.00;99.90
41058;DHT22;66768;48.884;2.258;2023-04-07T02:52:22;11.00;99.90
41058;DHT22;66768;48.884;2.258;2023-04-07T02:54:51;11.10;99.90
41058;DHT22;66768;48.884;2.258;2023-04-07T02:57:18;11.10;99.90
41058;DHT22;66768;48.884;2.258;2023-04-07T02:59:44;11.00;99.90
41058;DHT22;66768;48.884;2.258;2023-04-07T03:02:11;11.00;99.90
41058;DHT22;66768;48.884;2.258;2023-04-07T03:04:38;11.00;99.90
41058;DHT22;66768;48.884;2.258;2023-04-07T03:07:05;11.10;99.90
41058;DHT22;66768;48.884;2.258;2023-04-07T03:09:32;11.00;99.90
41058;DHT22;66768;48.884;2.258;2023-04-07T03:12:01;11.00;99.90
41058;DHT22;66768;48.884;2.258;2023-04-07T03:14:28;11.00;99.90
41058;DHT22;66768;48.884;2.258;2023-04-07T03:16:55;11.00;99.90
41058;DHT22;66768;48.884;2.258;2023-04-07T03:19:21;10.90;99.90
41058;DHT22;66768;48.884;2.258;2023-04-07T03:21:49;10.90;99.90
41058;DHT22;66768;48.884;2.258;2023-04-07T03:24:16;10.90;99.90
41058;DHT22;66768;48.884;2.258;2023-04-07T03:26:43;10.90;99.90
41058;DHT22;66768;48.884;2.258;2023-04-07T03:29:11;10.90;99.90
41058;DHT22;66768;48.884;2.258;2023-04-07T03:31:38;10.80;99.90
41058;DHT22;66768;48.884;2.258;2023-04-07T03:34:05;10.90;99.90
41058;DHT22;66768;48.884;2.258;2023-04-07T03:36:32;10.90;99.90
41058;DHT22;66768;48.884;2.258;2023-04-07T03:38:59;10.80;99.90
41058;DHT22;66768;48.884;2.258;2023-04-07T03:41:25;10.90;99.90
41058;DHT22;66768;48.884;2.258;2023-04-07T03:43:52;10.90;99.90
41058;DHT22;66768;48.884;2.258;2023-04-07T03:46:20;10.80;99.90
41058;DHT22;66768;48.884;2.258;2023-04-07T03:48:47;10.80;99.90
41058;DHT22;66768;48.884;2.258;2023-04-07T03:51:15;10.80;99.90
41058;DHT22;66768;48.884;2.258;2023-04-07T03:53:42;10.80;99.90
41058;DHT22;66768;48.884;2.258;2023-04-07T03:56:09;10.90;99.90
41058;DHT22;66768;48.884;2.258;2023-04-07T03:58:36;10.80;99.90
41058;DHT22;66768;48.884;2.258;2023-04-07T04:01:03;10.80;99.90
41058;DHT22;66768;48.884;2.258;2023-04-07T04:03:31;10.80;99.90
41058;DHT22;66768;48.884;2.258;2023-04-07T04:05:58;10.70;99.90
41058;DHT22;66768;48.884;2.258;2023-04-07T04:08:25;10.70;99.90
41058;DHT22;66768;48.884;2.258;2023-04-07T04:10:52;10.70;99.90
41058;DHT22;66768;48.884;2.258;2023-04-07T04:13:19;10.70;99.90
41058;DHT22;66768;48.884;2.258;2023-04-07T04:15:46;10.70;99.90
41058;DHT22;66768;48.884;2.258;2023-04-07T04:18:16;10.70;99.90
41058;DHT22;66768;48.884;2.258;2023-04-07T04:20:44;10.70;99.90
41058;DHT22;66768;48.884;2.258;2023-04-07T04:23:12;10.60;99.90
41058;DHT22;66768;48.884;2.258;2023-04-07T04:25:39;10.60;99.90
41058;DHT22;66768;48.884;2.258;2023-04-07T04:28:06;10.60;99.90
41058;DHT22;66768;48.884;2.258;2023-04-07T04:30:33;10.70;99.90
41058;DHT22;66768;48.884;2.258;2023-04-07T04:32:59;10.60;99.90
41058;DHT22;66768;48.884;2.258;2023-04-07T04:35:27;10.60;99.90
41058;DHT22;66768;48.884;2.258;2023-04-07T04:37:55;10.70;99.90
41058;DHT22;66768;48.884;2.258;2023-04-07T04:40:22;10.60;99.90
41058;DHT22;66768;48.884;2.258;2023-04-07T04:42:49;10.50;99.90
41058;DHT22;66768;48.884;2.258;2023-04-07T04:45:16;10.60;99.90
41058;DHT22;66768;48.884;2.258;2023-04-07T04:47:43;10.50;99.90
41058;DHT22;66768;48.884;2.258;2023-04-07T04:50:10;10.50;99.90
41058;DHT22;66768;48.884;2.258;2023-04-07T04:52:37;10.50;99.90
41058;DHT22;66768;48.884;2.258;2023-04-07T04:55:07;10.50;99.90
41058;DHT22;66768;48.884;2.258;2023-04-07T04:57:34;10.50;99.90
41058;DHT22;66768;48.884;2.258;2023-04-07T05:00:02;10.50;99.90
41058;DHT22;66768;48.884;2.258;2023-04-07T05:02:29;10.50;99.90
41058;DHT22;66768;48.884;2.258;2023-04-07T05:04:56;10.50;99.90
41058;DHT22;66768;48.884;2.258;2023-04-07T05:07:23;10.50;99.90
41058;DHT22;66768;48.884;2.258;2023-04-07T05:09:50;10.50;99.90
41058;DHT22;66768;48.884;2.258;2023-04-07T05:12:18;10.40;99.90
41058;DHT22;66768;48.884;2.258;2023-04-07T05:14:45;10.40;99.90
41058;DHT22;66768;48.884;2.258;2023-04-07T05:17:12;10.50;99.90
41058;DHT22;66768;48.884;2.258;2023-04-07T05:19:39;10.40;99.90
41058;DHT22;66768;48.884;2.258;2023-04-07T05:22:06;10.40;99.90
41058;DHT22;66768;48.884;2.258;2023-04-07T05:24:33;10.40;99.90
41058;DHT22;66768;48.884;2.258;2023-04-07T05:26:59;10.40;99.90
41058;DHT22;66768;48.884;2.258;2023-04-07T05:29:28;10.40;99.90
41058;DHT22;66768;48.884;2.258;2023-04-07T05:31:55;10.30;99.90
41058;DHT22;66768;48.884;2.258;2023-04-07T05:34:22;10.30;99.90
41058;DHT22;66768;48.884;2.258;2023-04-07T05:36:48;10.30;99.90
41058;DHT22;66768;48.884;2.258;2023-04-07T05:39:15;10.30;99.90
41058;DHT22;66768;48.884;2.258;2023-04-07T05:41:42;10.30;99.90
41058;DHT22;66768;48.884;2.258;2023-04-07T05:44:09;10.30;99.90
41058;DHT22;66768;48.884;2.258;2023-04-07T05:46:37;10.20;99.90
41058;DHT22;66768;48.884;2.258;2023-04-07T05:49:04;10.30;99.90
41058;DHT22;66768;48.884;2.258;2023-04-07T05:51:32;10.30;99.90
41058;DHT22;66768;48.884;2.258;2023-04-07T05:54:01;10.30;99.90
41058;DHT22;66768;48.884;2.258;2023-04-07T05:56:28;10.20;99.90
41058;DHT22;66768;48.884;2.258;2023-04-07T05:58:55;10.20;99.90
41058;DHT22;66768;48.884;2.258;2023-04-07T06:01:23;10.30;99.90
41058;DHT22;66768;48.884;2.258;2023-04-07T06:03:52;10.30;99.90
41058;DHT22;66768;48.884;2.258;2023-04-07T06:06:18;10.20;99.90
41058;DHT22;66768;48.884;2.258;2023-04-07T06:08:45;10.20;99.90
41058;DHT22;66768;48.884;2.258;2023-04-07T06:11:12;10.20;99.90
41058;DHT22;66768;48.884;2.258;2023-04-07T06:13:39;10.30;99.90
41058;DHT22;66768;48.884;2.258;2023-04-07T06:16:06;10.30;99.90
41058;DHT22;66768;48.884;2.258;2023-04-07T06:18:33;10.30;99.90
41058;DHT22;66768;48.884;2.258;2023-04-07T06:21:02;10.30;99.90
41058;DHT22;66768;48.884;2.258;2023-04-07T06:23:30;10.30;99.90
41058;DHT22;66768;48.884;2.258;2023-04-07T06:25:56;10.40;99.90
41058;DHT22;66768;48.884;2.258;2023-04-07T06:28:23;10.30;99.90
41058;DHT22;66768;48.884;2.258;2023-04-07T06:30:50;10.40;99.90
41058;DHT22;66768;48.884;2.258;2023-04-07T06:33:17;10.40;99.90
41058;DHT22;66768;48.884;2.258;2023-04-07T06:35:48;10.40;99.90
41058;DHT22;66768;48.884;2.258;2023-04-07T06:38:16;10.40;99.90
41058;DHT22;66768;48.884;2.258;2023-04-07T06:40:43;10.50;99.90
41058;DHT22;66768;48.884;2.258;2023-04-07T06:43:10;10.40;99.90
41058;DHT22;66768;48.884;2.258;2023-04-07T06:45:37;10.40;99.90
41058;DHT22;66768;48.884;2.258;2023-04-07T06:48:04;10.40;99.90
41058;DHT22;66768;48.884;2.258;2023-04-07T06:50:31;10.40;99.90
41058;DHT22;66768;48.884;2.258;2023-04-07T06:52:57;10.50;99.90
41058;DHT22;66768;48.884;2.258;2023-04-07T06:55:26;10.60;99.90
41058;DHT22;66768;48.884;2.258;2023-04-07T06:57:53;10.70;99.90
41058;DHT22;66768;48.884;2.258;2023-04-07T07:00:20;10.60;99.90
41058;DHT22;66768;48.884;2.258;2023-04-07T07:02:47;10.70;99.90
41058;DHT22;66768;48.884;2.258;2023-04-07T07:05:14;10.70;99.90
41058;DHT22;66768;48.884;2.258;2023-04-07T07:07:41;10.70;99.90
41058;DHT22;66768;48.884;2.258;2023-04-07T07:10:09;10.70;99.90
41058;DHT22;66768;48.884;2.258;2023-04-07T07:12:37;10.70;99.90
41058;DHT22;66768;48.884;2.258;2023-04-07T07:15:05;10.80;99.90
41058;DHT22;66768;48.884;2.258;2023-04-07T07:17:32;10.90;99.90
41058;DHT22;66768;48.884;2.258;2023-04-07T07:19:59;10.80;99.90
41058;DHT22;66768;48.884;2.258;2023-04-07T07:22:26;10.90;99.90
41058;DHT22;66768;48.884;2.258;2023-04-07T07:24:53;10.90;99.90
41058;DHT22;66768;48.884;2.258;2023-04-07T07:27:20;11.00;99.90
41058;DHT22;66768;48.884;2.258;2023-04-07T07:29:49;10.90;99.90
41058;DHT22;66768;48.884;2.258;2023-04-07T07:32:15;11.00;99.90
41058;DHT22;66768;48.884;2.258;2023-04-07T07:34:42;11.10;99.90
41058;DHT22;66768;48.884;2.258;2023-04-07T07:37:09;11.00;99.90
41058;DHT22;66768;48.884;2.258;2023-04-07T07:39:37;11.20;99.90
41058;DHT22;66768;48.884;2.258;2023-04-07T07:42:04;11.20;99.90
41058;DHT22;66768;48.884;2.258;2023-04-07T07:44:30;11.20;99.90
41058;DHT22;66768;48.884;2.258;2023-04-07T07:46:59;11.30;99.90
41058;DHT22;66768;48.884;2.258;2023-04-07T07:49:26;11.30;99.90
41058;DHT22;66768;48.884;2.258;2023-04-07T07:51:52;11.40;99.90
41058;DHT22;66768;48.884;2.258;2023-04-07T07:54:19;11.30;99.90
41058;DHT22;66768;48.884;2.258;2023-04-07T07:56:46;11.30;99.90
41058;DHT22;66768;48.884;2.258;2023-04-07T07:59:13;11.40;99.90
41058;DHT22;66768;48.884;2.258;2023-04-07T08:01:40;11.40;99.90
41058;DHT22;66768;48.884;2.258;2023-04-07T08:04:09;11.50;99.90
41058;DHT22;66768;48.884;2.258;2023-04-07T08:06:36;11.60;99.90
41058;DHT22;66768;48.884;2.258;2023-04-07T08:09:03;11.50;99.90
41058;DHT22;66768;48.884;2.258;2023-04-07T08:11:30;11.60;99.90
41058;DHT22;66768;48.884;2.258;2023-04-07T08:13:57;11.70;99.90
41058;DHT22;66768;48.884;2.258;2023-04-07T08:16:24;11.80;99.90
41058;DHT22;66768;48.884;2.258;2023-04-07T08:18:51;11.80;99.90
41058;DHT22;66768;48.884;2.258;2023-04-07T08:21:19;11.80;99.90
41058;DHT22;66768;48.884;2.258;2023-04-07T08:23:46;11.90;99.90
41058;DHT22;66768;48.884;2.258;2023-04-07T08:26:13;11.90;99.90
41058;DHT22;66768;48.884;2.258;2023-04-07T08:28:41;11.90;99.90
41058;DHT22;66768;48.884;2.258;2023-04-07T08:31:08;12.00;99.90
41058;DHT22;66768;48.884;2.258;2023-04-07T08:33:35;12.10;99.90
41058;DHT22;66768;48.884;2.258;2023-04-07T08:36:01;12.00;99.90
41058;DHT22;66768;48.884;2.258;2023-04-07T08:38:30;12.00;99.90
41058;DHT22;66768;48.884;2.258;2023-04-07T08:41:01;12.10;99.90
41058;DHT22;66768;48.884;2.258;2023-04-07T08:43:29;12.10;99.90
41058;DHT22;66768;48.884;2.258;2023-04-07T08:45:57;12.20;99.90
41058;DHT22;66768;48.884;2.258;2023-04-07T08:48:24;12.10;99.90
41058;DHT22;66768;48.884;2.258;2023-04-07T08:50:55;12.20;99.90
41058;DHT22;66768;48.884;2.258;2023-04-07T08:53:27;12.20;99.90
41058;DHT22;66768;48.884;2.258;2023-04-07T08:55:56;12.20;99.90
41058;DHT22;66768;48.884;2.258;2023-04-07T08:58:23;12.20;99.90
41058;DHT22;66768;48.884;2.258;2023-04-07T09:00:51;12.20;99.90
41058;DHT22;66768;48.884;2.258;2023-04-07T09:03:18;12.20;99.90
41058;DHT22;66768;48.884;2.258;2023-04-07T09:05:46;12.40;99.90
41058;DHT22;66768;48.884;2.258;2023-04-07T09:08:15;12.40;99.90
41058;DHT22;66768;48.884;2.258;2023-04-07T09:10:42;12.50;99.90
41058;DHT22;66768;48.884;2.258;2023-04-07T09:13:11;12.50;99.90
41058;DHT22;66768;48.884;2.258;2023-04-07T09:15:38;12.50;99.90
41058;DHT22;66768;48.884;2.258;2023-04-07T09:18:06;12.50;99.90
41058;DHT22;66768;48.884;2.258;2023-04-07T09:20:54;12.60;99.90
41058;DHT22;66768;48.884;2.258;2023-04-07T09:23:27;12.70;99.90
41058;DHT22;66768;48.884;2.258;2023-04-07T09:25:55;12.70;99.70
41058;DHT22;66768;48.884;2.258;2023-04-07T09:28:37;12.80;99.80
41058;DHT22;66768;48.884;2.258;2023-04-07T09:31:06;12.80;99.70
41058;DHT22;66768;48.884;2.258;2023-04-07T09:33:33;12.90;99.60
41058;DHT22;66768;48.884;2.258;2023-04-07T09:36:01;12.90;99.60
41058;DHT22;66768;48.884;2.258;2023-04-07T09:38:32;12.90;99.40
41058;DHT22;66768;48.884;2.258;2023-04-07T09:41:06;12.90;99.20
41058;DHT22;66768;48.884;2.258;2023-04-07T09:43:37;12.90;99.00
41058;DHT22;66768;48.884;2.258;2023-04-07T09:46:08;12.90;99.00
41058;DHT22;66768;48.884;2.258;2023-04-07T09:48:35;13.10;99.20
41058;DHT22;66768;48.884;2.258;2023-04-07T09:51:07;13.10;99.20
41058;DHT22;66768;48.884;2.258;2023-04-07T09:53:45;13.20;98.50
41058;DHT22;66768;48.884;2.258;2023-04-07T09:56:14;13.20;98.60
41058;DHT22;66768;48.884;2.258;2023-04-07T09:58:45;13.20;97.50
41058;DHT22;66768;48.884;2.258;2023-04-07T10:01:13;13.30;97.20
41058;DHT22;66768;48.884;2.258;2023-04-07T10:03:41;13.30;96.70
41058;DHT22;66768;48.884;2.258;2023-04-07T10:06:07;13.30;96.70
41058;DHT22;66768;48.884;2.258;2023-04-07T10:08:36;13.40;96.80
41058;DHT22;66768;48.884;2.258;2023-04-07T10:11:04;13.30;95.70
41058;DHT22;66768;48.884;2.258;2023-04-07T10:13:33;13.30;95.70
41058;DHT22;66768;48.884;2.258;2023-04-07T10:16:02;13.30;96.00
41058;DHT22;66768;48.884;2.258;2023-04-07T10:18:31;13.40;95.60
41058;DHT22;66768;48.884;2.258;2023-04-07T10:20:59;13.40;94.30
41058;DHT22;66768;48.884;2.258;2023-04-07T10:23:36;13.40;94.20
41058;DHT22;66768;48.884;2.258;2023-04-07T10:26:05;13.40;94.30
41058;DHT22;66768;48.884;2.258;2023-04-07T10:28:37;13.50;94.70
41058;DHT22;66768;48.884;2.258;2023-04-07T10:31:06;13.60;94.50
41058;DHT22;66768;48.884;2.258;2023-04-07T10:33:48;13.60;93.90
41058;DHT22;66768;48.884;2.258;2023-04-07T10:36:16;13.50;93.60
41058;DHT22;66768;48.884;2.258;2023-04-07T10:39:20;13.60;93.30
41058;DHT22;66768;48.884;2.258;2023-04-07T10:41:48;13.60;92.80
41058;DHT22;66768;48.884;2.258;2023-04-07T10:44:44;13.70;92.30
41058;DHT22;66768;48.884;2.258;2023-04-07T10:47:12;13.80;92.00
41058;DHT22;66768;48.884;2.258;2023-04-07T10:50:15;13.90;92.30
41058;DHT22;66768;48.884;2.258;2023-04-07T10:52:43;14.00;92.70
41058;DHT22;66768;48.884;2.258;2023-04-07T10:55:36;14.00;92.90
41058;DHT22;66768;48.884;2.258;2023-04-07T10:58:19;14.00;92.70
41058;DHT22;66768;48.884;2.258;2023-04-07T11:01:17;13.90;92.20
41058;DHT22;66768;48.884;2.258;2023-04-07T11:03:55;13.90;92.40
41058;DHT22;66768;48.884;2.258;2023-04-07T11:06:22;13.90;91.40
41058;DHT22;66768;48.884;2.258;2023-04-07T11:08:49;13.90;91.30
41058;DHT22;66768;48.884;2.258;2023-04-07T11:11:21;13.80;91.40
41058;DHT22;66768;48.884;2.258;2023-04-07T11:14:00;13.90;91.70
41058;DHT22;66768;48.884;2.258;2023-04-07T11:16:35;14.00;92.00
41058;DHT22;66768;48.884;2.258;2023-04-07T11:19:03;14.00;91.90
41058;DHT22;66768;48.884;2.258;2023-04-07T11:21:30;14.00;91.80
41058;DHT22;66768;48.884;2.258;2023-04-07T11:23:57;14.00;91.90
41058;DHT22;66768;48.884;2.258;2023-04-07T11:26:24;14.00;91.90
41058;DHT22;66768;48.884;2.258;2023-04-07T11:28:53;14.00;92.00
41058;DHT22;66768;48.884;2.258;2023-04-07T11:31:24;14.10;91.60
41058;DHT22;66768;48.884;2.258;2023-04-07T11:33:52;14.10;91.30
41058;DHT22;66768;48.884;2.258;2023-04-07T11:36:28;14.10;90.10
41058;DHT22;66768;48.884;2.258;2023-04-07T11:38:56;14.10;89.60
41058;DHT22;66768;48.884;2.258;2023-04-07T11:41:25;14.20;89.00
41058;DHT22;66768;48.884;2.258;2023-04-07T11:44:06;14.30;89.30
41058;DHT22;66768;48.884;2.258;2023-04-07T11:46:33;14.30;90.30
41058;DHT22;66768;48.884;2.258;2023-04-07T11:49:12;14.40;90.60
41058;DHT22;66768;48.884;2.258;2023-04-07T11:51:41;14.40;90.40
41058;DHT22;66768;48.884;2.258;2023-04-07T11:54:08;14.50;90.30
41058;DHT22;66768;48.884;2.258;2023-04-07T11:56:43;14.60;90.20
41058;DHT22;66768;48.884;2.258;2023-04-07T11:59:18;14.60;89.50
41058;DHT22;66768;48.884;2.258;2023-04-07T12:01:47;14.60;88.50
41058;DHT22;66768;48.884;2.258;2023-04-07T12:04:14;14.70;87.50
41058;DHT22;66768;48.884;2.258;2023-04-07T12:06:44;14.60;86.90
41058;DHT22;66768;48.884;2.258;2023-04-07T12:09:25;14.50;87.20
41058;DHT22;66768;48.884;2.258;2023-04-07T12:11:53;14.60;88.40
41058;DHT22;66768;48.884;2.258;2023-04-07T12:14:20;14.50;88.70
41058;DHT22;66768;48.884;2.258;2023-04-07T12:16:47;14.50;88.60
41058;DHT22;66768;48.884;2.258;2023-04-07T12:19:15;14.50;88.30
41058;DHT22;66768;48.884;2.258;2023-04-07T12:21:44;14.50;87.20
41058;DHT22;66768;48.884;2.258;2023-04-07T12:24:11;14.60;87.80
41058;DHT22;66768;48.884;2.258;2023-04-07T12:26:37;14.70;88.60
41058;DHT22;66768;48.884;2.258;2023-04-07T12:29:04;14.70;89.30
41058;DHT22;66768;48.884;2.258;2023-04-07T12:31:31;14.80;89.90
41058;DHT22;66768;48.884;2.258;2023-04-07T12:33:58;14.80;89.30
41058;DHT22;66768;48.884;2.258;2023-04-07T12:36:25;14.80;87.80
41058;DHT22;66768;48.884;2.258;2023-04-07T12:38:54;14.80;86.90
41058;DHT22;66768;48.884;2.258;2023-04-07T12:41:21;14.60;86.90
41058;DHT22;66768;48.884;2.258;2023-04-07T12:43:48;14.70;87.00
41058;DHT22;66768;48.884;2.258;2023-04-07T12:46:15;14.60;86.90
41058;DHT22;66768;48.884;2.258;2023-04-07T12:48:43;14.60;87.30
41058;DHT22;66768;48.884;2.258;2023-04-07T12:51:10;14.60;88.40
41058;DHT22;66768;48.884;2.258;2023-04-07T12:53:37;14.60;88.50
41058;DHT22;66768;48.884;2.258;2023-04-07T12:56:05;14.60;88.90
41058;DHT22;66768;48.884;2.258;2023-04-07T12:58:32;14.60;89.20
41058;DHT22;66768;48.884;2.258;2023-04-07T13:00:59;14.50;88.40
41058;DHT22;66768;48.884;2.258;2023-04-07T13:03:26;14.50;88.50
41058;DHT22;66768;48.884;2.258;2023-04-07T13:05:53;14.50;88.60
41058;DHT22;66768;48.884;2.258;2023-04-07T13:08:20;14.50;87.90
41058;DHT22;66768;48.884;2.258;2023-04-07T13:10:47;14.40;87.40
41058;DHT22;66768;48.884;2.258;2023-04-07T13:13:15;14.50;87.10
41058;DHT22;66768;48.884;2.258;2023-04-07T13:15:42;14.50;86.60
41058;DHT22;66768;48.884;2.258;2023-04-07T13:18:09;14.60;85.90
41058;DHT22;66768;48.884;2.258;2023-04-07T13:20:36;14.70;84.70
41058;DHT22;66768;48.884;2.258;2023-04-07T13:23:03;14.70;84.10
41058;DHT22;66768;48.884;2.258;2023-04-07T13:25:30;14.70;84.60
41058;DHT22;66768;48.884;2.258;2023-04-07T13:27:57;14.80;85.00
41058;DHT22;66768;48.884;2.258;2023-04-07T13:30:26;14.80;86.40
41058;DHT22;66768;48.884;2.258;2023-04-07T13:32:53;14.90;87.40
41058;DHT22;66768;48.884;2.258;2023-04-07T13:35:20;14.80;87.50
41058;DHT22;66768;48.884;2.258;2023-04-07T13:37:47;14.80;86.90
41058;DHT22;66768;48.884;2.258;2023-04-07T13:40:14;14.70;86.20
41058;DHT22;66768;48.884;2.258;2023-04-07T13:42:41;14.70;86.00
41058;DHT22;66768;48.884;2.258;2023-04-07T13:45:08;14.60;87.50
41058;DHT22;66768;48.884;2.258;2023-04-07T13:47:37;14.70;87.90
41058;DHT22;66768;48.884;2.258;2023-04-07T13:50:05;14.70;88.30
41058;DHT22;66768;48.884;2.258;2023-04-07T13:52:33;14.70;88.70
41058;DHT22;66768;48.884;2.258;2023-04-07T13:55:00;14.70;88.60
41058;DHT22;66768;48.884;2.258;2023-04-07T13:57:28;14.80;88.40
41058;DHT22;66768;48.884;2.258;2023-04-07T13:59:55;14.80;86.70
41058;DHT22;66768;48.884;2.258;2023-04-07T14:02:22;14.90;88.30
41058;DHT22;66768;48.884;2.258;2023-04-07T14:04:51;14.90;88.10
41058;DHT22;66768;48.884;2.258;2023-04-07T14:07:19;14.90;85.70
41058;DHT22;66768;48.884;2.258;2023-04-07T14:09:47;14.90;85.00
41058;DHT22;66768;48.884;2.258;2023-04-07T14:12:14;14.90;84.30
41058;DHT22;66768;48.884;2.258;2023-04-07T14:14:41;14.90;84.00
41058;DHT22;66768;48.884;2.258;2023-04-07T14:17:08;14.80;83.50
41058;DHT22;66768;48.884;2.258;2023-04-07T14:19:35;14.70;82.40
41058;DHT22;66768;48.884;2.258;2023-04-07T14:22:03;14.60;83.50
41058;DHT22;66768;48.884;2.258;2023-04-07T14:24:30;14.60;83.70
41058;DHT22;66768;48.884;2.258;2023-04-07T14:26:57;14.70;84.40
41058;DHT22;66768;48.884;2.258;2023-04-07T14:29:26;14.70;84.30
41058;DHT22;66768;48.884;2.258;2023-04-07T14:31:53;14.70;84.50
41058;DHT22;66768;48.884;2.258;2023-04-07T14:34:20;14.80;85.10
41058;DHT22;66768;48.884;2.258;2023-04-07T14:36:52;14.80;85.50
41058;DHT22;66768;48.884;2.258;2023-04-07T14:39:20;14.90;86.40
41058;DHT22;66768;48.884;2.258;2023-04-07T14:41:48;14.90;85.90
41058;DHT22;66768;48.884;2.258;2023-04-07T14:44:15;15.00;83.80
41058;DHT22;66768;48.884;2.258;2023-04-07T14:46:42;15.00;80.80
41058;DHT22;66768;48.884;2.258;2023-04-07T14:49:09;15.00;80.30
41058;DHT22;66768;48.884;2.258;2023-04-07T14:51:37;15.10;81.00
41058;DHT22;66768;48.884;2.258;2023-04-07T14:54:04;15.00;79.80
41058;DHT22;66768;48.884;2.258;2023-04-07T14:56:32;15.00;79.70
41058;DHT22;66768;48.884;2.258;2023-04-07T14:58:59;15.00;79.30
41058;DHT22;66768;48.884;2.258;2023-04-07T15:01:26;15.00;79.10
41058;DHT22;66768;48.884;2.258;2023-04-07T15:03:53;15.00;79.50
41058;DHT22;66768;48.884;2.258;2023-04-07T15:06:20;15.00;79.50
41058;DHT22;66768;48.884;2.258;2023-04-07T15:08:48;15.10;79.10
41058;DHT22;66768;48.884;2.258;2023-04-07T15:11:14;15.10;79.70
41058;DHT22;66768;48.884;2.258;2023-04-07T15:13:43;15.10;80.20
41058;DHT22;66768;48.884;2.258;2023-04-07T15:16:11;15.10;81.70
41058;DHT22;66768;48.884;2.258;2023-04-07T15:18:40;15.10;86.60
41058;DHT22;66768;48.884;2.258;2023-04-07T15:21:07;14.90;88.50
41058;DHT22;66768;48.884;2.258;2023-04-07T15:23:35;14.80;90.10
41058;DHT22;66768;48.884;2.258;2023-04-07T15:26:03;14.80;90.10
41058;DHT22;66768;48.884;2.258;2023-04-07T15:28:30;14.80;90.00
41058;DHT22;66768;48.884;2.258;2023-04-07T15:30:59;14.80;89.90
41058;DHT22;66768;48.884;2.258;2023-04-07T15:33:26;14.80;90.00
41058;DHT22;66768;48.884;2.258;2023-04-07T15:35:53;14.90;90.00
41058;DHT22;66768;48.884;2.258;2023-04-07T15:38:20;14.80;89.20